METAR AND TAF INFORMATION
METAR FOR UNOO
ADDS - METARS form results

(0717 UTC 22 January 2019)
Data provider http://aviationweather.gov/metar/data/
 
METAR text: UNOO 220700Z 19003MPS CAVOK M15/M18 Q1026 R25/810545 NOSIG RMK QFE761
Conditions at: UNOO (TSENTRALNY/OMSK , RU) observed 0700 UTC 22 January 2019
Temperature: -15.0°C ( 5°F)
Dewpoint: -18.0°C (-0°F) [RH = 78%]
Pressure (altimeter): 30.30 inches Hg (1026.0 mb)
Winds: from the S (190 degrees) at 7 MPH (6 knots; 3.1 m/s)
Visibility: 6 or more miles (10+ km)
Ceiling: ceiling and visibility are OK
Clouds: unknown
Weather: no significant weather observed at this time

METAR text: UNOO 220630Z 18004MPS CAVOK M16/M18 Q1026 R25/810545 NOSIG RMK QFE761
Conditions at: UNOO (TSENTRALNY/OMSK , RU) observed 0630 UTC 22 January 2019
Temperature: -16.0°C ( 3°F)
Dewpoint: -18.0°C (-0°F) [RH = 85%]
Pressure (altimeter): 30.30 inches Hg (1026.0 mb)
Winds: from the S (180 degrees) at 9 MPH (8 knots; 4.1 m/s)
Visibility: 6 or more miles (10+ km)
Ceiling: ceiling and visibility are OK
Clouds: unknown
Weather: no significant weather observed at this time

Forecast for: UNOO (TSENTRALNY/OMSK , RU)
Text: TAF UNOO 220455Z 2206/2306 20005G11MPS 4000 BR FU SCT010
Forecast period: 0600 UTC 22 January 2019 to 0600 UTC 23 January 2019
Forecast type: FROM: standard forecast or significant change
Winds: from the SSW (200 degrees) at 12 MPH (10 knots; 5.1 m/s)
gusting to 24 MPH (21 knots; 10.8 m/s)
Visibility: 2.49 miles (4.01 km)
Ceiling: at least 12,000 feet AGL
Clouds: scattered clouds at 1000 feet AGL
Weather: BR FU  (mist, smoke)
Text: TEMPO 2212/2303 2300 BR SCT007
Forecast period: 1200 UTC 22 January 2019 to 0300 UTC 23 January 2019
Forecast type: TEMPORARY: The following changes expected for less than half the time period
Visibility: 1.43 miles (2.30 km)
Ceiling: at least 12,000 feet AGL
Clouds: scattered clouds at 700 feet AGL
Weather: BR  (mist)

 AIRPORT MAP

 RUNWAY INFORMATION

 AIRPORT FREQUENCIES
Type ATIS Name ATIS Frequency 126.4 MHZ
Type GND Name TAXIING Frequency 121.7 MHZ
Type RDR Name KRUG Frequency 119 MHZ
Type TWR Name START Frequency 119 MHZ

 AIRPORT NEAR NAVIGATION AIDS
Type NDB Name Omsk Frequency 332 KHZ
Type NDB Name Omsk Frequency 332 KHZ



2018 Air Astana Virtual Airline